AirNav   Pilot Hours Calculator
 
 1483 users online  

IS15 Vodden Airport
Esmond, Illinois, USA

GOING TO ESMOND?


FAA INFORMATION EFFECTIVE 01 DECEMBER 2022

Location

FAA Identifier: IS15
Lat/Long: 42-01-57.0980N 088-54-09.3400W
42-01.951633N 088-54.155667W
42.0325272,-88.9025944
(estimated)
Elevation: 850 ft. / 259 m (estimated)
Variation: 00W (1985)
From city: 2 miles E of ESMOND, IL
Time zone: UTC -6 (UTC -5 during Daylight Saving Time)
Zip code: 60146

Airport Operations

Airport use: Private use. Permission required prior to landing
Activation date: 06/1980
Control tower: no
ARTCC: CHICAGO CENTER
FSS: KANKAKEE FLIGHT SERVICE STATION
Attendance: UNATNDD
Wind indicator: yes
Segmented circle: no

Airport Communications

WX AWOS-3 at DKB (11 nm SE): 119.075 (815-748-2350)
WX AWOS-3 at RPJ (12 nm SW): 125.2 (815-562-2955)
WX ASOS at RFD (13 nm NW): PHONE 815-484-6229

Nearby radio navigation aids

VOR radial/distance  VOR name  Freq  Var
DPAr287/26.1DUPAGE VOR/DME108.4002E
PLLr079/28.0POLO VOR/DME111.2003E
JVLr161/32.8JANESVILLE VOR/DME114.3003E
JOTr316/39.2JOLIET VOR/DME112.3002E

Airport Services

Runway Information

Runway 9/27

Dimensions: 2000 x 75 ft. / 610 x 23 m
Surface: turf
RUNWAY 9  RUNWAY 27
Traffic pattern: leftleft
Obstructions: none17 ft. pline, 250 ft. from runway

Airport Ownership and Management from official FAA records

Ownership: Privately-owned
Owner: GEORGE H. VODDEN
27601 MC QUEEN ROAD
KIRKLAND, IL 60146
Phone (815) 519-4541
CELL - 815-519-4541
Manager: GEORGE H. VODDEN
27601 MC QUEEN ROAD
KIRKLAND, IL 60146
Phone (815) 519-4541
OTHER CONTACT JILL VODDEN 815-519-4541

Airport Operational Statistics

Aircraft based on the field: 2
Single engine airplanes: 2
    

Additional Remarks

FOR CD CTC CHICAGO ARTCC AT 630-906-8921.

Instrument Procedures

There are no published instrument procedures at IS15.

Some nearby airports with instrument procedures:

KDKB - De Kalb Taylor Municipal Airport (11 nm SE)
KRPJ - Rochelle Municipal Airport/Koritz Field (12 nm SW)
KRFD - Chicago/Rockford International Airport (13 nm NW)
C77 - Poplar Grove Airport (18 nm N)
KARR - Aurora Municipal Airport (25 nm SE)
 
Loc | Ops | Rwys | IFR | FBO | Links
Com | Nav | Svcs | Stats | Notes
Area around IS15 (Vodden Airport)
 
Road maps at: MapQuest Bing Google
 
Aerial photo
WARNING: Photo may not be current or correct
Aerial photo of IS15 (Vodden Airport)
Photo by Tom Blomgren
Photo taken 14-Oct-2004

Do you have a better or more recent aerial photo of Vodden Airport that you would like to share? If so, please send us your photo.

 
Sectional chart

 
Airport distance calculator
Flying to Vodden Airport? Find the distance to fly.

From to IS15

Sunrise and sunset
Times for 07-Dec-2022
 Local
(UTC-6)
 Zulu
(UTC)
Morning civil twilight06:4012:40
Sunrise07:1113:11
Sunset16:2322:23
Evening civil twilight16:5422:54

Current date and time
Zulu (UTC)  07-Dec-2022 14:41:25
Local (UTC-6)  07-Dec-2022 08:41:25
 
METAR
KDKB 
11nm SE 
071415Z AUTO 14003KT 1 1/2SM BR OVC015 01/01 A3022 RMK AO2 T00110011
KRPJ 
12nm SW 
071415Z AUTO 00000KT 4SM BR OVC010 03/02 A3022 RMK AO2 T00300023 TSNO
KRFD 
13nm NW 
071354Z 00000KT 4SM BR OVC013 01/M01 A3023 RMK AO2 SLP244 T00111006
TAF
KRFD 
13nm NW 
071403Z 0714/0812 VRB03KT 6SM BR OVC010 TEMPO 0714/0715 3SM BR OVC005 FM071800 31005KT P6SM BKN015 FM072100 35005KT P6SM BKN025 FM080100 01005KT P6SM SCT025 BKN100
NOTAMs
Click for the latest NOTAMs
NOTAMs are issued by the DoD/FAA and will open in a separate window not controlled by AirNav.

 

 
 

Would you like to see your business listed on this page?

 If your business provides an interesting product or service to pilots, flight crews, aircraft, or users of the Vodden Airport, you should consider listing it here.  To start the listing process, click on the button below
 
Add a business
 

Other Pages about Vodden Airport

Update a link
 
Copyright © AirNav, LLC. All rights reserved. Privacy Policy  Contact